createdAt,value
2018-01-10T00:00:17.348Z,1003.18
2018-01-10T00:01:17.321Z,1003.10
2018-01-10T00:02:17.301Z,1003.13
2018-01-10T00:03:17.280Z,1003.12
2018-01-10T00:04:17.262Z,1003.11
2018-01-10T00:05:17.240Z,1003.12
2018-01-10T00:06:17.220Z,1003.09
2018-01-10T00:07:17.199Z,1003.10
2018-01-10T00:08:17.176Z,1003.11
2018-01-10T00:09:17.160Z,1003.11
2018-01-10T00:10:17.146Z,1003.09
2018-01-10T00:11:17.120Z,1003.09
2018-01-10T00:12:17.099Z,1003.09
2018-01-10T00:13:17.070Z,1003.07
2018-01-10T00:14:17.055Z,1003.08
2018-01-10T00:15:17.031Z,1003.08
2018-01-10T00:16:17.010Z,1003.02
2018-01-10T00:17:16.993Z,1003.05
2018-01-10T00:18:16.968Z,1003.04
2018-01-10T00:19:16.951Z,1003.01
2018-01-10T00:20:16.926Z,1003.02
2018-01-10T00:21:16.912Z,1003.03
2018-01-10T00:22:16.895Z,1003.04
2018-01-10T00:23:16.870Z,1003.05
2018-01-10T00:24:16.849Z,1003.02
2018-01-10T00:25:16.834Z,1003.03
2018-01-10T00:26:16.812Z,1003.03
2018-01-10T00:27:16.792Z,1003.05
2018-01-10T00:28:16.768Z,1003.02
2018-01-10T00:29:16.742Z,1003.02
2018-01-10T00:30:16.727Z,1003.04
2018-01-10T00:31:16.704Z,1003.02
2018-01-10T00:32:16.682Z,1003.03
2018-01-10T00:33:16.672Z,1003.05
2018-01-10T00:34:16.650Z,1003.04
2018-01-10T00:35:16.620Z,1003.03
2018-01-10T00:36:16.605Z,1003.06
2018-01-10T00:37:16.591Z,1003.05
2018-01-10T00:38:16.562Z,1003.10
2018-01-10T00:39:16.540Z,1003.04
2018-01-10T00:40:16.518Z,1003.04
2018-01-10T00:41:16.499Z,1003.08
2018-01-10T00:42:16.481Z,1003.06
2018-01-10T00:43:16.457Z,1003.12
2018-01-10T00:44:16.438Z,1003.12
2018-01-10T00:45:16.420Z,1003.10
2018-01-10T00:46:16.396Z,1003.13
2018-01-10T00:47:16.381Z,1003.09
2018-01-10T00:48:16.352Z,1003.10
2018-01-10T00:49:16.338Z,1003.08
2018-01-10T00:50:16.312Z,1003.09
2018-01-10T00:51:16.292Z,1003.09
2018-01-10T00:52:16.272Z,1003.06
2018-01-10T00:53:16.249Z,1003.04
2018-01-10T00:54:16.230Z,1003.04
2018-01-10T00:55:16.211Z,1003.07
2018-01-10T00:56:16.192Z,1003.03
2018-01-10T00:57:16.166Z,1003.02
2018-01-10T00:58:16.151Z,1003.04
2018-01-10T00:59:16.128Z,1003.04
2018-01-10T01:00:16.107Z,1003.00
2018-01-10T01:01:16.092Z,1003.00
2018-01-10T01:02:16.069Z,1003.00
2018-01-10T01:03:16.042Z,1003.00
2018-01-10T01:04:16.020Z,1003.02
2018-01-10T01:05:16.000Z,1003.05
2018-01-10T01:06:15.980Z,1003.06
2018-01-10T01:07:15.956Z,1003.06
2018-01-10T01:08:15.936Z,1003.06
2018-01-10T01:09:15.918Z,1003.07
2018-01-10T01:10:15.899Z,1003.07
2018-01-10T01:11:15.877Z,1003.09
2018-01-10T01:12:15.853Z,1003.10
2018-01-10T01:13:15.833Z,1003.13
2018-01-10T01:14:15.821Z,1003.12
2018-01-10T01:15:15.794Z,1003.11
2018-01-10T01:16:15.771Z,1003.17
2018-01-10T01:17:15.750Z,1003.17
2018-01-10T01:18:15.730Z,1003.12
2018-01-10T01:19:15.710Z,1003.12
2018-01-10T01:20:15.690Z,1003.13
2018-01-10T01:21:15.669Z,1003.10
2018-01-10T01:22:15.649Z,1003.10
2018-01-10T01:23:15.631Z,1003.13
2018-01-10T01:24:15.609Z,1003.11
2018-01-10T01:25:15.586Z,1003.13
2018-01-10T01:26:15.580Z,1003.15
2018-01-10T01:27:15.551Z,1003.19
2018-01-10T01:28:15.524Z,1003.17
2018-01-10T01:29:15.510Z,1003.16
2018-01-10T01:30:15.486Z,1003.16
2018-01-10T01:31:15.469Z,1003.16
2018-01-10T01:32:15.441Z,1003.17
2018-01-10T01:33:15.420Z,1003.11
2018-01-10T01:34:15.410Z,1003.16
2018-01-10T01:35:15.380Z,1003.13
2018-01-10T01:36:15.360Z,1003.13
2018-01-10T01:37:15.341Z,1003.13
2018-01-10T01:38:15.319Z,1003.11
2018-01-10T01:39:15.298Z,1003.11
2018-01-10T01:40:15.276Z,1003.13
2018-01-10T01:41:15.259Z,1003.13
2018-01-10T01:42:15.242Z,1003.15
2018-01-10T01:43:15.216Z,1003.16
2018-01-10T01:44:15.191Z,1003.16
2018-01-10T01:45:15.171Z,1003.13
2018-01-10T01:46:15.156Z,1003.16
2018-01-10T01:47:15.142Z,1003.17
2018-01-10T01:48:15.111Z,1003.16
2018-01-10T01:49:15.094Z,1003.19
2018-01-10T01:50:15.070Z,1003.18
2018-01-10T01:51:15.049Z,1003.17
2018-01-10T01:52:15.030Z,1003.18
2018-01-10T01:53:15.010Z,1003.15
2018-01-10T01:54:14.986Z,1003.17
2018-01-10T01:55:14.969Z,1003.09
2018-01-10T01:56:14.947Z,1003.14
2018-01-10T01:57:14.925Z,1003.13
2018-01-10T01:58:14.909Z,1003.14
2018-01-10T01:59:14.893Z,1003.16
2018-01-10T02:00:14.867Z,1003.13
2018-01-10T02:01:14.840Z,1003.12
2018-01-10T02:02:14.828Z,1003.10
2018-01-10T02:03:14.804Z,1003.09
2018-01-10T02:04:14.781Z,1003.09
2018-01-10T02:05:14.760Z,1003.10
2018-01-10T02:06:14.739Z,1003.11
2018-01-10T02:07:14.718Z,1003.14
2018-01-10T02:08:14.701Z,1003.09
2018-01-10T02:09:14.682Z,1003.12
2018-01-10T02:10:14.659Z,1003.10
2018-01-10T02:11:14.638Z,1003.09
2018-01-10T02:12:14.622Z,1003.08
2018-01-10T02:13:14.596Z,1003.05
2018-01-10T02:14:14.575Z,1003.06
2018-01-10T02:15:14.559Z,1003.04
2018-01-10T02:16:14.540Z,1003.04
2018-01-10T02:17:14.520Z,1003.07
2018-01-10T02:18:14.494Z,1003.06
2018-01-10T02:19:14.473Z,1003.05
2018-01-10T02:20:14.459Z,1003.02
2018-01-10T02:21:14.432Z,1003.03
2018-01-10T02:22:14.413Z,1003.00
2018-01-10T02:23:14.392Z,1002.98
2018-01-10T02:24:14.370Z,1002.97
2018-01-10T02:25:14.348Z,1002.93
2018-01-10T02:26:14.335Z,1002.96
2018-01-10T02:27:14.314Z,1002.96
2018-01-10T02:28:14.296Z,1002.95
2018-01-10T02:29:14.269Z,1002.99
2018-01-10T02:30:14.246Z,1003.00
2018-01-10T02:31:14.230Z,1002.97
2018-01-10T02:32:14.207Z,1002.98
2018-01-10T02:33:14.190Z,1002.93
2018-01-10T02:34:14.170Z,1002.95
2018-01-10T02:35:14.144Z,1002.94
2018-01-10T02:36:14.129Z,1002.91
2018-01-10T02:37:14.109Z,1002.91
2018-01-10T02:38:14.081Z,1002.90
2018-01-10T02:39:14.061Z,1002.88
2018-01-10T02:40:14.039Z,1002.89
2018-01-10T02:41:14.019Z,1002.92
2018-01-10T02:42:14.010Z,1002.94
2018-01-10T02:43:13.980Z,1002.93
2018-01-10T02:44:13.960Z,1002.96
2018-01-10T02:45:13.992Z,1002.92
2018-01-10T02:46:13.920Z,1002.88
2018-01-10T02:47:13.916Z,1002.85
2018-01-10T02:48:13.880Z,1002.87
2018-01-10T02:49:13.862Z,1002.87
2018-01-10T02:50:13.891Z,1002.88
2018-01-10T02:51:13.819Z,1002.86
2018-01-10T02:52:13.795Z,1002.87
2018-01-10T02:53:13.776Z,1002.85
2018-01-10T02:54:13.758Z,1002.86
2018-01-10T02:55:13.733Z,1002.84
2018-01-10T02:56:13.711Z,1002.87
2018-01-10T02:57:13.693Z,1002.85
2018-01-10T02:58:13.673Z,1002.87
2018-01-10T02:59:13.651Z,1002.86
2018-01-10T03:00:13.629Z,1002.86
2018-01-10T03:01:13.608Z,1002.88
2018-01-10T03:02:13.589Z,1002.86
2018-01-10T03:03:13.570Z,1002.84
2018-01-10T03:04:13.549Z,1002.82
2018-01-10T03:05:13.529Z,1002.86
2018-01-10T03:06:13.511Z,1002.84
2018-01-10T03:07:13.487Z,1002.90
2018-01-10T03:08:13.469Z,1002.86
2018-01-10T03:09:13.450Z,1002.84
2018-01-10T03:10:13.425Z,1002.87
2018-01-10T03:11:13.404Z,1002.86
2018-01-10T03:12:13.382Z,1002.86
2018-01-10T03:13:13.362Z,1002.87
2018-01-10T03:14:13.353Z,1002.86
2018-01-10T03:15:13.327Z,1002.89
2018-01-10T03:16:13.303Z,1002.89
2018-01-10T03:17:13.281Z,1002.88
2018-01-10T03:18:13.260Z,1002.87
2018-01-10T03:19:13.247Z,1002.83
2018-01-10T03:20:13.224Z,1002.89
2018-01-10T03:21:13.203Z,1002.85
2018-01-10T03:22:13.180Z,1002.87
2018-01-10T03:23:13.161Z,1002.85
2018-01-10T03:24:13.142Z,1002.85
2018-01-10T03:25:13.116Z,1002.86
2018-01-10T03:26:13.100Z,1002.86
2018-01-10T03:27:13.081Z,1002.87
2018-01-10T03:28:13.054Z,1002.85
2018-01-10T03:29:13.038Z,1002.87
2018-01-10T03:30:13.018Z,1002.86
2018-01-10T03:31:12.998Z,1002.87
2018-01-10T03:32:12.982Z,1002.83
2018-01-10T03:33:12.962Z,1002.84
2018-01-10T03:34:12.940Z,1002.83
2018-01-10T03:35:12.921Z,1002.84
2018-01-10T03:36:12.897Z,1002.86
2018-01-10T03:37:12.879Z,1002.84
2018-01-10T03:38:12.853Z,1002.85
2018-01-10T03:39:12.840Z,1002.83
2018-01-10T03:40:12.810Z,1002.86
2018-01-10T03:41:12.801Z,1002.86
2018-01-10T03:42:12.770Z,1002.85
2018-01-10T03:43:12.760Z,1002.85
2018-01-10T03:44:12.730Z,1002.82
2018-01-10T03:45:12.709Z,1002.78
2018-01-10T03:46:12.690Z,1002.80
2018-01-10T03:47:12.721Z,1002.77
2018-01-10T03:48:12.650Z,1002.79
2018-01-10T03:49:12.678Z,1002.83
2018-01-10T03:50:12.611Z,1002.84
2018-01-10T03:51:12.689Z,1002.82
2018-01-10T03:52:12.570Z,1002.81
2018-01-10T03:53:12.644Z,1002.85
2018-01-10T03:54:12.525Z,1002.80
2018-01-10T03:55:12.509Z,1002.82
2018-01-10T03:56:12.490Z,1002.83
2018-01-10T03:57:12.470Z,1002.84
2018-01-10T03:58:12.443Z,1002.83
2018-01-10T03:59:12.526Z,1002.81
2018-01-10T04:00:12.401Z,1002.77
2018-01-10T04:01:12.382Z,1002.77
2018-01-10T04:02:12.360Z,1002.76
2018-01-10T04:03:12.400Z,1002.78
2018-01-10T04:04:12.319Z,1002.76
2018-01-10T04:05:12.341Z,1002.78
2018-01-10T04:06:12.280Z,1002.77
2018-01-10T04:07:12.266Z,1002.76
2018-01-10T04:08:12.244Z,1002.72
2018-01-10T04:09:12.303Z,1002.74
2018-01-10T04:10:12.201Z,1002.69
2018-01-10T04:11:12.212Z,1002.72
2018-01-10T04:12:12.160Z,1002.72
2018-01-10T04:13:12.138Z,1002.74
2018-01-10T04:14:12.118Z,1002.74
2018-01-10T04:15:12.099Z,1002.74
2018-01-10T04:16:12.076Z,1002.76
2018-01-10T04:17:12.060Z,1002.73
2018-01-10T04:18:12.042Z,1002.74
2018-01-10T04:19:12.022Z,1002.74
2018-01-10T04:20:12.003Z,1002.76
2018-01-10T04:21:11.980Z,1002.77
2018-01-10T04:22:11.958Z,1002.75
2018-01-10T04:23:11.941Z,1002.77
2018-01-10T04:24:11.920Z,1002.82
2018-01-10T04:25:11.903Z,1002.76
2018-01-10T04:26:11.879Z,1002.78
2018-01-10T04:27:11.856Z,1002.75
2018-01-10T04:28:11.837Z,1002.75
2018-01-10T04:29:11.819Z,1002.74
2018-01-10T04:30:11.800Z,1002.70
2018-01-10T04:31:11.779Z,1002.72
2018-01-10T04:32:11.754Z,1002.73
2018-01-10T04:33:11.736Z,1002.71
2018-01-10T04:34:11.718Z,1002.71
2018-01-10T04:35:11.698Z,1002.70
2018-01-10T04:36:11.669Z,1002.69
2018-01-10T04:37:11.649Z,1002.69
2018-01-10T04:38:11.631Z,1002.65
2018-01-10T04:39:11.611Z,1002.64
2018-01-10T04:40:11.590Z,1002.62
2018-01-10T04:41:11.569Z,1002.65
2018-01-10T04:42:11.549Z,1002.66
2018-01-10T04:43:11.531Z,1002.64
2018-01-10T04:44:11.508Z,1002.63
2018-01-10T04:45:11.491Z,1002.67
2018-01-10T04:46:11.472Z,1002.67
2018-01-10T04:47:11.453Z,1002.66
2018-01-10T04:48:11.432Z,1002.70
2018-01-10T04:49:11.411Z,1002.70
2018-01-10T04:50:11.389Z,1002.67
2018-01-10T04:51:11.373Z,1002.71
2018-01-10T04:52:11.352Z,1002.70
2018-01-10T04:53:11.331Z,1002.68
2018-01-10T04:54:11.303Z,1002.68
2018-01-10T04:55:11.288Z,1002.64
2018-01-10T04:56:11.261Z,1002.67
2018-01-10T04:57:11.289Z,1002.63
2018-01-10T04:58:11.224Z,1002.61
2018-01-10T04:59:11.200Z,1002.62
2018-01-10T05:00:11.180Z,1002.62
2018-01-10T05:01:11.202Z,1002.61
2018-01-10T05:02:11.141Z,1002.61
2018-01-10T05:03:11.169Z,1002.62
2018-01-10T05:04:11.097Z,1002.64
2018-01-10T05:05:11.085Z,1002.62
2018-01-10T05:06:11.059Z,1002.64
2018-01-10T05:07:11.040Z,1002.63
2018-01-10T05:08:11.016Z,1002.64
2018-01-10T05:09:10.994Z,1002.63
2018-01-10T05:10:10.980Z,1002.59
2018-01-10T05:11:11.050Z,1002.59
2018-01-10T05:12:10.940Z,1002.60
2018-01-10T05:13:10.915Z,1002.60
2018-01-10T05:14:10.900Z,1002.60
2018-01-10T05:15:10.876Z,1002.58
2018-01-10T05:16:10.860Z,1002.60
2018-01-10T05:17:10.837Z,1002.62
2018-01-10T05:18:10.810Z,1002.62
2018-01-10T05:19:10.916Z,1002.59
2018-01-10T05:20:10.771Z,1002.60
2018-01-10T05:21:10.750Z,1002.60
2018-01-10T05:22:10.734Z,1002.60
2018-01-10T05:23:10.709Z,1002.64
2018-01-10T05:24:10.687Z,1002.62
2018-01-10T05:25:10.671Z,1002.58
2018-01-10T05:26:10.649Z,1002.58
2018-01-10T05:27:10.634Z,1002.61
2018-01-10T05:28:10.610Z,1002.60
2018-01-10T05:29:10.592Z,1002.60
2018-01-10T05:30:10.600Z,1002.61
2018-01-10T05:31:10.560Z,1002.63
2018-01-10T05:32:10.529Z,1002.63
2018-01-10T05:33:10.569Z,1002.65
2018-01-10T05:34:10.482Z,1002.59
2018-01-10T05:35:10.472Z,1002.62
2018-01-10T05:36:10.452Z,1002.59
2018-01-10T05:37:10.425Z,1002.56
2018-01-10T05:38:10.407Z,1002.53
2018-01-10T05:39:10.385Z,1002.53
2018-01-10T05:40:10.366Z,1002.50
2018-01-10T05:41:10.346Z,1002.54
2018-01-10T05:42:10.330Z,1002.54
2018-01-10T05:43:10.309Z,1002.53
2018-01-10T05:44:10.295Z,1002.53
2018-01-10T05:45:10.264Z,1002.52
2018-01-10T05:46:10.246Z,1002.54
2018-01-10T05:47:10.234Z,1002.53
2018-01-10T05:48:10.200Z,1002.55
2018-01-10T05:49:10.183Z,1002.53
2018-01-10T05:50:10.166Z,1002.52
2018-01-10T05:51:10.146Z,1002.53
2018-01-10T05:52:10.128Z,1002.51
2018-01-10T05:53:10.110Z,1002.54
2018-01-10T05:54:10.088Z,1002.52
2018-01-10T05:55:10.071Z,1002.52
2018-01-10T05:56:10.049Z,1002.54
2018-01-10T05:57:10.025Z,1002.52
2018-01-10T05:58:10.004Z,1002.49
2018-01-10T05:59:09.991Z,1002.46
2018-01-10T06:00:09.962Z,1002.49
2018-01-10T06:01:09.948Z,1002.48
2018-01-10T06:02:09.923Z,1002.51
2018-01-10T06:03:09.903Z,1002.50
2018-01-10T06:04:09.890Z,1002.50
2018-01-10T06:05:09.862Z,1002.48
2018-01-10T06:06:09.849Z,1002.47
2018-01-10T06:07:09.829Z,1002.47
2018-01-10T06:08:09.811Z,1002.49
2018-01-10T06:09:09.786Z,1002.50
2018-01-10T06:10:09.771Z,1002.48
2018-01-10T06:11:09.750Z,1002.52
2018-01-10T06:12:09.725Z,1002.49
2018-01-10T06:13:09.711Z,1002.53
2018-01-10T06:14:09.689Z,1002.55
2018-01-10T06:15:09.672Z,1002.52
2018-01-10T06:16:09.648Z,1002.55
2018-01-10T06:17:09.631Z,1002.59
2018-01-10T06:18:09.609Z,1002.55
2018-01-10T06:19:09.588Z,1002.61
2018-01-10T06:20:09.572Z,1002.56
2018-01-10T06:21:09.549Z,1002.60
2018-01-10T06:22:09.529Z,1002.60
2018-01-10T06:23:09.511Z,1002.58
2018-01-10T06:24:09.491Z,1002.59
2018-01-10T06:25:09.474Z,1002.60
2018-01-10T06:26:09.459Z,1002.58
2018-01-10T06:27:09.433Z,1002.59
2018-01-10T06:28:09.411Z,1002.59
2018-01-10T06:29:09.392Z,1002.58
2018-01-10T06:30:09.371Z,1002.60
2018-01-10T06:31:09.359Z,1002.59
2018-01-10T06:32:09.331Z,1002.60
2018-01-10T06:33:09.310Z,1002.62
2018-01-10T06:34:09.291Z,1002.65
2018-01-10T06:35:09.278Z,1002.62
2018-01-10T06:36:09.252Z,1002.62
2018-01-10T06:37:09.232Z,1002.62
2018-01-10T06:38:09.222Z,1002.62
2018-01-10T06:39:09.197Z,1002.63
2018-01-10T06:40:09.178Z,1002.65
2018-01-10T06:41:09.157Z,1002.65
2018-01-10T06:42:09.134Z,1002.66
2018-01-10T06:43:09.121Z,1002.67
2018-01-10T06:44:09.098Z,1002.68
2018-01-10T06:45:09.080Z,1002.71
2018-01-10T06:46:09.071Z,1002.69
2018-01-10T06:47:09.041Z,1002.70
2018-01-10T06:48:09.027Z,1002.69
2018-01-10T06:49:08.997Z,1002.68
2018-01-10T06:50:08.981Z,1002.69
2018-01-10T06:51:08.961Z,1002.71
2018-01-10T06:52:08.941Z,1002.69
2018-01-10T06:53:08.923Z,1002.69
2018-01-10T06:54:08.900Z,1002.67
2018-01-10T06:55:08.881Z,1002.72
2018-01-10T06:56:08.859Z,1002.67
2018-01-10T06:57:08.848Z,1002.71
2018-01-10T06:58:08.826Z,1002.68
2018-01-10T06:59:08.804Z,1002.72
2018-01-10T07:00:08.788Z,1002.72
2018-01-10T07:01:08.763Z,1002.71
2018-01-10T07:02:08.748Z,1002.72
2018-01-10T07:03:08.725Z,1002.68
2018-01-10T07:04:08.706Z,1002.69
2018-01-10T07:05:08.686Z,1002.69
2018-01-10T07:06:08.672Z,1002.72
2018-01-10T07:07:08.652Z,1002.74
2018-01-10T07:08:08.631Z,1002.73
2018-01-10T07:09:08.610Z,1002.73
2018-01-10T07:10:08.591Z,1002.72
2018-01-10T07:11:08.566Z,1002.75
2018-01-10T07:12:08.551Z,1002.79
2018-01-10T07:13:08.530Z,1002.78
2018-01-10T07:14:08.513Z,1002.77
2018-01-10T07:15:08.489Z,1002.74
2018-01-10T07:16:08.470Z,1002.73
2018-01-10T07:17:08.450Z,1002.74
2018-01-10T07:18:08.431Z,1002.79
2018-01-10T07:19:08.419Z,1002.77
2018-01-10T07:20:08.390Z,1002.74
2018-01-10T07:21:08.371Z,1002.74
2018-01-10T07:22:08.362Z,1002.72
2018-01-10T07:23:08.339Z,1002.78
2018-01-10T07:24:08.316Z,1002.77
2018-01-10T07:25:08.312Z,1002.80
2018-01-10T07:26:08.284Z,1002.79
2018-01-10T07:27:08.265Z,1002.77
2018-01-10T07:28:08.251Z,1002.75
2018-01-10T07:29:08.280Z,1002.76
2018-01-10T07:30:08.201Z,1002.76
2018-01-10T07:31:08.185Z,1002.78
2018-01-10T07:32:08.165Z,1002.76
2018-01-10T07:33:08.137Z,1002.76
2018-01-10T07:34:08.120Z,1002.80
2018-01-10T07:35:08.117Z,1002.78
2018-01-10T07:36:08.090Z,1002.81
2018-01-10T07:37:08.060Z,1002.79
2018-01-10T07:38:08.043Z,1002.80
2018-01-10T07:39:08.029Z,1002.81
2018-01-10T07:40:08.048Z,1002.83
2018-01-10T07:41:07.980Z,1002.81
2018-01-10T07:42:07.961Z,1002.82
2018-01-10T07:43:07.938Z,1002.80
2018-01-10T07:44:07.920Z,1002.83
2018-01-10T07:45:07.900Z,1002.84
2018-01-10T07:46:07.887Z,1002.82
2018-01-10T07:47:07.860Z,1002.81
2018-01-10T07:48:07.844Z,1002.84
2018-01-10T07:49:07.826Z,1002.78
2018-01-10T07:50:07.811Z,1002.81
2018-01-10T07:51:07.784Z,1002.82
2018-01-10T07:52:07.779Z,1002.83
2018-01-10T07:53:07.743Z,1002.85
2018-01-10T07:54:07.729Z,1002.84
2018-01-10T07:55:07.725Z,1002.85
2018-01-10T07:56:07.684Z,1002.86
2018-01-10T07:57:07.671Z,1002.86
2018-01-10T07:58:07.651Z,1002.83
2018-01-10T07:59:07.639Z,1002.81
2018-01-10T08:00:07.601Z,1002.86
2018-01-10T08:01:07.584Z,1002.89
2018-01-10T08:02:07.611Z,1002.88
2018-01-10T08:03:07.546Z,1002.92
2018-01-10T08:04:07.541Z,1002.91
2018-01-10T08:05:07.504Z,1002.93
2018-01-10T08:06:07.486Z,1002.91
2018-01-10T08:07:07.471Z,1002.92
2018-01-10T08:08:07.446Z,1002.94
2018-01-10T08:09:07.429Z,1002.93
2018-01-10T08:10:07.411Z,1002.94
2018-01-10T08:11:07.388Z,1002.96
2018-01-10T08:12:07.369Z,1002.97
2018-01-10T08:13:07.349Z,1002.99
2018-01-10T08:14:07.327Z,1002.98
2018-01-10T08:15:07.308Z,1002.97
2018-01-10T08:16:07.291Z,1002.95
2018-01-10T08:17:07.272Z,1002.97
2018-01-10T08:18:07.251Z,1002.97
2018-01-10T08:19:07.240Z,1002.98
2018-01-10T08:20:07.212Z,1002.98
2018-01-10T08:21:07.209Z,1002.96
2018-01-10T08:22:07.181Z,1002.97
2018-01-10T08:23:07.154Z,1002.97
2018-01-10T08:24:07.141Z,1002.99
2018-01-10T08:25:07.110Z,1003.00
2018-01-10T08:26:07.100Z,1002.99
2018-01-10T08:27:07.084Z,1002.98
2018-01-10T08:28:07.055Z,1003.03
2018-01-10T08:29:07.040Z,1003.04
2018-01-10T08:30:07.021Z,1003.01
2018-01-10T08:31:07.001Z,1003.03
2018-01-10T08:32:06.982Z,1003.07
2018-01-10T08:33:06.960Z,1003.03
2018-01-10T08:34:06.937Z,1003.09
2018-01-10T08:35:06.920Z,1003.07
2018-01-10T08:36:06.895Z,1003.05
2018-01-10T08:37:06.877Z,1003.06
2018-01-10T08:38:06.860Z,1003.05
2018-01-10T08:39:06.839Z,1003.07
2018-01-10T08:40:06.820Z,1003.06
2018-01-10T08:41:06.799Z,1003.09
2018-01-10T08:42:06.780Z,1003.07
2018-01-10T08:43:06.762Z,1003.09
2018-01-10T08:44:06.740Z,1003.09
2018-01-10T08:45:06.725Z,1003.08
2018-01-10T08:46:06.703Z,1003.08
2018-01-10T08:47:06.692Z,1003.05
2018-01-10T08:48:06.666Z,1003.09
2018-01-10T08:49:06.645Z,1003.02
2018-01-10T08:50:06.630Z,1003.08
2018-01-10T08:51:06.606Z,1003.11
2018-01-10T08:52:06.614Z,1003.08
2018-01-10T08:53:06.571Z,1003.07
2018-01-10T08:54:06.555Z,1003.09
2018-01-10T08:55:06.532Z,1003.10
2018-01-10T08:56:06.513Z,1003.09
2018-01-10T08:57:06.486Z,1003.11
2018-01-10T08:58:06.467Z,1003.14
2018-01-10T08:59:06.457Z,1003.15
2018-01-10T09:00:06.430Z,1003.13
2018-01-10T09:01:06.410Z,1003.16
2018-01-10T09:02:06.389Z,1003.17
2018-01-10T09:03:06.370Z,1003.18
2018-01-10T09:04:06.360Z,1003.16
2018-01-10T09:05:06.339Z,1003.19
2018-01-10T09:06:06.320Z,1003.16
2018-01-10T09:07:06.297Z,1003.18
2018-01-10T09:08:06.271Z,1003.18
2018-01-10T09:09:06.259Z,1003.18
2018-01-10T09:10:06.238Z,1003.14
2018-01-10T09:11:06.216Z,1003.16
2018-01-10T09:12:06.201Z,1003.16
2018-01-10T09:13:06.180Z,1003.16
2018-01-10T09:14:06.156Z,1003.19
2018-01-10T09:15:06.140Z,1003.18
2018-01-10T09:16:06.120Z,1003.13
2018-01-10T09:17:06.099Z,1003.20
2018-01-10T09:18:06.077Z,1003.19
2018-01-10T09:19:06.067Z,1003.20
2018-01-10T09:20:06.042Z,1003.20
2018-01-10T09:21:06.022Z,1003.22
2018-01-10T09:22:06.003Z,1003.23
2018-01-10T09:23:05.980Z,1003.18
2018-01-10T09:24:05.961Z,1003.19
2018-01-10T09:25:05.952Z,1003.17
2018-01-10T09:26:05.921Z,1003.16
2018-01-10T09:27:05.912Z,1003.13
2018-01-10T09:28:05.881Z,1003.17
2018-01-10T09:29:05.860Z,1003.15
2018-01-10T09:30:05.845Z,1003.17
2018-01-10T09:31:05.823Z,1003.17
2018-01-10T09:32:05.809Z,1003.13
2018-01-10T09:33:05.781Z,1003.13
2018-01-10T09:34:05.772Z,1003.16
2018-01-10T09:35:05.744Z,1003.15
2018-01-10T09:36:05.735Z,1003.12
2018-01-10T09:37:05.703Z,1003.18
2018-01-10T09:38:05.688Z,1003.16
2018-01-10T09:39:05.666Z,1003.19
2018-01-10T09:40:05.657Z,1003.19
2018-01-10T09:41:05.629Z,1003.18
2018-01-10T09:42:05.605Z,1003.18
2018-01-10T09:43:05.585Z,1003.17
2018-01-10T09:44:05.570Z,1003.19
2018-01-10T09:45:05.550Z,1003.17
2018-01-10T09:46:05.529Z,1003.18
2018-01-10T09:47:05.509Z,1003.20
2018-01-10T09:48:05.490Z,1003.22
2018-01-10T09:49:05.470Z,1003.20
2018-01-10T09:50:05.448Z,1003.20
2018-01-10T09:51:05.434Z,1003.22
2018-01-10T09:52:05.407Z,1003.25
2018-01-10T09:53:05.391Z,1003.20
2018-01-10T09:54:05.370Z,1003.21
2018-01-10T09:55:05.355Z,1003.20
2018-01-10T09:56:05.331Z,1003.18
2018-01-10T09:57:05.310Z,1003.17
2018-01-10T09:58:05.288Z,1003.17
2018-01-10T09:59:05.269Z,1003.16
2018-01-10T10:00:05.255Z,1003.18
2018-01-10T10:01:05.230Z,1003.16
2018-01-10T10:02:05.214Z,1003.15
2018-01-10T10:03:05.192Z,1003.13
2018-01-10T10:04:05.178Z,1003.08
2018-01-10T10:05:05.151Z,1003.13
2018-01-10T10:06:05.130Z,1003.09
2018-01-10T10:07:05.114Z,1003.07
2018-01-10T10:08:05.093Z,1003.04
2018-01-10T10:09:05.076Z,1003.06
2018-01-10T10:10:05.054Z,1003.08
2018-01-10T10:11:05.036Z,1003.08
2018-01-10T10:12:05.016Z,1003.02
2018-01-10T10:13:05.001Z,1003.04
2018-01-10T10:14:04.980Z,1003.00
2018-01-10T10:15:04.957Z,1002.99
2018-01-10T10:16:04.939Z,1002.98
2018-01-10T10:17:04.924Z,1002.97
2018-01-10T10:18:04.903Z,1002.95
2018-01-10T10:19:04.881Z,1002.93
2018-01-10T10:20:04.869Z,1002.93
2018-01-10T10:21:04.848Z,1002.93
2018-01-10T10:22:04.822Z,1002.91
2018-01-10T10:23:04.821Z,1002.87
2018-01-10T10:24:04.784Z,1002.92
2018-01-10T10:25:04.762Z,1002.87
2018-01-10T10:26:04.744Z,1002.86
2018-01-10T10:27:04.732Z,1002.88
2018-01-10T10:28:04.712Z,1002.88
2018-01-10T10:29:04.689Z,1002.86
2018-01-10T10:30:04.677Z,1002.85
2018-01-10T10:31:04.655Z,1002.84
2018-01-10T10:32:04.628Z,1002.90
2018-01-10T10:33:04.612Z,1002.89
2018-01-10T10:34:04.594Z,1002.85
2018-01-10T10:35:04.570Z,1002.87
2018-01-10T10:36:04.551Z,1002.89
2018-01-10T10:37:04.530Z,1002.81
2018-01-10T10:38:04.511Z,1002.84
2018-01-10T10:39:04.492Z,1002.82
2018-01-10T10:40:04.474Z,1002.81
2018-01-10T10:41:04.452Z,1002.85
2018-01-10T10:42:04.435Z,1002.83
2018-01-10T10:43:04.424Z,1002.81
2018-01-10T10:44:04.397Z,1002.82
2018-01-10T10:45:04.382Z,1002.79
2018-01-10T10:46:04.359Z,1002.74
2018-01-10T10:47:04.340Z,1002.78
2018-01-10T10:48:04.322Z,1002.78
2018-01-10T10:49:04.301Z,1002.77
2018-01-10T10:50:04.288Z,1002.79
2018-01-10T10:51:04.265Z,1002.79
2018-01-10T10:52:04.248Z,1002.75
2018-01-10T10:53:04.225Z,1002.77
2018-01-10T10:54:04.205Z,1002.78
2018-01-10T10:55:04.191Z,1002.78
2018-01-10T10:56:04.173Z,1002.79
2018-01-10T10:57:04.148Z,1002.75
2018-01-10T10:58:04.131Z,1002.80
2018-01-10T10:59:04.111Z,1002.72
2018-01-10T11:00:04.091Z,1002.75
2018-01-10T11:01:04.070Z,1002.71
2018-01-10T11:02:04.053Z,1002.72
2018-01-10T11:03:04.043Z,1002.75
2018-01-10T11:04:04.014Z,1002.70
2018-01-10T11:05:03.995Z,1002.71
2018-01-10T11:06:03.982Z,1002.71
2018-01-10T11:07:03.955Z,1002.71
2018-01-10T11:08:03.941Z,1002.62
2018-01-10T11:09:03.920Z,1002.66
2018-01-10T11:10:03.902Z,1002.64
2018-01-10T11:11:03.881Z,1002.68
2018-01-10T11:12:03.862Z,1002.64
2018-01-10T11:13:03.841Z,1002.66
2018-01-10T11:14:03.822Z,1002.60
2018-01-10T11:15:03.806Z,1002.61
2018-01-10T11:16:03.783Z,1002.64
2018-01-10T11:17:03.766Z,1002.58
2018-01-10T11:18:03.747Z,1002.57
2018-01-10T11:19:03.728Z,1002.58
2018-01-10T11:20:03.710Z,1002.56
2018-01-10T11:21:03.690Z,1002.57
2018-01-10T11:22:03.675Z,1002.55
2018-01-10T11:23:03.657Z,1002.55
2018-01-10T11:24:03.640Z,1002.54
2018-01-10T11:25:03.618Z,1002.52
2018-01-10T11:26:03.603Z,1002.49
2018-01-10T11:27:03.610Z,1002.48
2018-01-10T11:28:03.565Z,1002.45
2018-01-10T11:29:03.553Z,1002.49
2018-01-10T11:30:03.523Z,1002.50
2018-01-10T11:31:03.501Z,1002.47
2018-01-10T11:32:03.486Z,1002.46
2018-01-10T11:33:03.467Z,1002.45
2018-01-10T11:34:03.455Z,1002.47
2018-01-10T11:35:03.436Z,1002.44
2018-01-10T11:36:03.410Z,1002.38
2018-01-10T11:37:03.402Z,1002.39
2018-01-10T11:38:03.370Z,1002.34
2018-01-10T11:39:03.362Z,1002.38
2018-01-10T11:40:03.336Z,1002.34
2018-01-10T11:41:03.322Z,1002.29
2018-01-10T11:42:03.299Z,1002.27
2018-01-10T11:43:03.280Z,1002.29
2018-01-10T11:44:03.259Z,1002.26
2018-01-10T11:45:03.251Z,1002.28
2018-01-10T11:46:03.328Z,1002.25
2018-01-10T11:47:03.209Z,1002.28
2018-01-10T11:48:03.193Z,1002.28
2018-01-10T11:49:03.169Z,1002.28
2018-01-10T11:50:03.163Z,1002.28
2018-01-10T11:51:03.136Z,1002.29
2018-01-10T11:52:03.120Z,1002.32
2018-01-10T11:53:03.101Z,1002.36
2018-01-10T11:55:03.061Z,1002.32
2018-01-10T11:56:03.046Z,1002.39
2018-01-10T11:57:03.031Z,1002.35
2018-01-10T11:58:03.011Z,1002.31
2018-01-10T11:59:02.995Z,1002.27
2018-01-10T12:00:02.974Z,1002.31
2018-01-10T12:01:02.957Z,1002.30
2018-01-10T12:02:02.949Z,1002.29
2018-01-10T12:03:02.929Z,1002.26
2018-01-10T12:04:02.906Z,1002.30
2018-01-10T12:05:02.890Z,1002.31
2018-01-10T12:06:02.871Z,1002.30